Aviation Digital Data Service (ADDS)

Output produced by METARs form (0111 UTC 03 May 2016)
found at http://www.aviationweather.gov/adds/metars/
 
KDOV 022358Z AUTO 09004KT 10SM SCT170 16/16 A2988 RMK AO2 SLP122 T01560156 10201 20156 55002 VISNO RWY19 CHINO RWY19 $
TAF KDOV 030000Z 0300/0406 09006KT 8000 BR SCT020 SCT170 QNH2984INS 
     TEMPO 0300/0304 4800 -TSRA OVC020CB 
     BECMG 0303/0304 09006KT 6000 -SHRA BR OVC003 QNH2970INS 
     BECMG 0316/0317 03009KT 9999 NSW BKN007 OVC020 QNH2969INS 
     BECMG 0401/0402 03006KT 8000 BR OVC003 QNH2973INS TX16/0300Z TN12/0311Z